x

9431647 - Port Orford, Or (poro3) Weather Station

5:54am - Wed 20th Sep 2017 All times are PDT. -7 hours from GMT.

  • Wind
    3mph, 5mph gusts
  • Sea Temp 54°f
  • Air Temp 55°f
  • Sea Pressure 1010.9mb
  • 9431647 - Port Orford, Or
  • 9431647 - Port Orford, Or

More Historic Weather Station data

Upgrade to MSW Pro to gain access to the past 30 days of data for over 8000 Wavebouys and Weather Stations around the globe.

Join

Comparision Forecast

View Surf forecast
   
Wed 09/20 5:54am 3 5 mph 1010.9mb 54f 55f
5:48am 1 6 mph 1010.8mb 54f 54f
5:42am 3 7 mph 1010.8mb 54f 54f
5:36am 2 7 mph 1010.8mb 54f 55f
5:30am 5 9 mph 1010.8mb 54f 55f
5:24am 2 7 mph 1011mb 54f 56f
5:18am 3 6 mph 1010.7mb 54f 56f
5:12am 5 6 mph 1010.6mb 54f 56f
5:06am 5 7 mph 1010.6mb 54f 56f
5:00am 6 8 mph 1010.6mb 54f 56f
4:54am 6 9 mph 1010.6mb 54f 56f
4:48am 6 7 mph 1010.7mb 54f 56f
4:42am 6 9 mph 1010.7mb 54f 56f
4:36am 6 7 mph 1010.8mb 54f 56f
4:30am 3 6 mph 1010.8mb 54f 56f
4:24am 5 8 mph 1010.8mb 54f 56f
4:18am 6 7 mph 1010.8mb 54f 56f
4:12am 6 7 mph 1010.7mb 54f 56f
4:06am 6 8 mph 1010.6mb 54f 56f
4:00am 5 7 mph 1010.7mb 54f 56f
3:54am 6 8 mph 1010.7mb 54f 56f
3:48am 7 11 mph 1010.6mb 54f 56f
3:42am 8 9 mph 1010.5mb 54f 55f
3:36am 5 7 mph 1010.6mb 54f 55f
3:30am 6 7 mph 1010.6mb 54f 55f
3:24am 3 6 mph 1010.5mb 54f 55f
3:18am 6 8 mph 1010.5mb 54f 55f
3:12am 5 7 mph 1010.4mb 54f 55f
3:06am 6 8 mph 1010.5mb 54f 55f
3:00am 5 8 mph 1010.5mb 54f 55f
2:54am 7 10 mph 1010.4mb 54f 56f
2:48am 7 9 mph 1010.5mb 54f 55f
2:42am 8 9 mph 1010.5mb 54f 55f
2:36am 6 7 mph 1010.5mb 54f 55f
2:30am 7 10 mph 1010.5mb 54f 55f
2:24am 8 13 mph 1010.5mb 54f 56f
2:18am 10 16 mph 1010.5mb 54f 56f
2:12am 8 13 mph 1010.6mb 54f 55f
2:06am 13 15 mph 1010.5mb 54f 56f
2:00am 13 16 mph 1010.5mb 54f 55f
1:54am 15 18 mph 1010.4mb 54f 55f
1:48am 15 17 mph 1010.4mb 54f 55f
1:42am 15 17 mph 1010.3mb 54f 55f
1:36am 15 18 mph 1010.2mb 54f 55f
1:30am 15 20 mph 1010.2mb 54f 55f
1:24am 17 21 mph 1010.3mb 54f 55f
1:18am 18 21 mph 1010.2mb 54f 55f
1:12am 17 21 mph 1010.2mb 54f 55f
1:06am 18 22 mph 1010.2mb 54f 55f
1:00am 20 22 mph 1010.2mb 54f 55f
12:54am 20 23 mph 1010.3mb 54f 55f
12:48am 20 23 mph 1010.3mb 54f 55f
12:42am 21 24 mph 1010.3mb 54f 55f
12:36am 20 24 mph 1010.2mb 53f 55f
12:30am 22 25 mph 1010.2mb 53f 55f
12:24am 22 25 mph 1010.2mb 53f 55f
12:18am 23 26 mph 1010.3mb 53f 55f
12:12am 24 30 mph 1010.3mb 53f 55f
12:06am 26 31 mph 1010.2mb 54f 55f
12:00am 28 31 mph 1010.1mb 54f 55f
Tue 09/19 11:48pm 29 32 mph 1010.3mb 54f -
11:42pm 26 32 mph 1010.3mb 54f -
11:36pm 29 34 mph 1010.2mb 54f -
11:30pm 28 32 mph 1010.2mb 54f 55f
11:24pm 29 33 mph 1010.3mb 53f 55f
11:18pm 25 31 mph 1010.3mb 54f 55f
11:12pm 26 31 mph 1010.3mb 54f 55f
11:06pm 28 32 mph 1010.3mb 54f 56f
11:00pm 25 32 mph 1010.3mb 54f 56f
10:54pm 25 32 mph 1010.3mb 54f 56f
10:48pm 25 30 mph 1010.3mb - -
10:42pm 23 28 mph 1010.4mb - -
10:36pm 24 29 mph 1010.4mb - -
10:30pm 24 29 mph 1010.4mb 53f 56f
10:24pm 23 30 mph 1010.5mb 54f 56f
10:18pm 24 30 mph 1010.5mb 54f 56f
10:12pm 23 29 mph 1010.5mb 54f 56f
10:06pm 22 29 mph 1010.6mb 53f 55f
10:00pm 25 29 mph 1010.5mb 53f 56f
9:54pm 24 30 mph 1010.6mb 53f 56f
9:48pm 25 34 mph 1010.7mb 54f 55f
9:42pm 32 41 mph 1010.5mb 54f 56f
9:36pm 28 34 mph 1010.6mb 53f 55f
9:30pm 28 34 mph 1010.6mb 53f 55f
9:24pm 23 29 mph 1010.6mb 53f 55f
9:18pm 25 29 mph 1010.6mb 53f 55f
9:12pm 22 29 mph 1010.7mb 54f 55f
9:06pm 24 31 mph 1010.7mb 54f 55f
9:00pm 25 31 mph 1010.7mb 54f 55f
8:54pm 26 33 mph 1010.6mb 54f 55f
8:48pm 25 31 mph 1010.8mb 54f 55f
8:42pm 22 29 mph 1010.9mb 54f 55f
8:36pm 22 31 mph 1011mb 54f 55f
8:30pm 28 33 mph 1011mb 54f 55f
8:24pm 26 30 mph 1010.9mb 54f 55f
8:18pm 26 32 mph 1010.9mb 54f 55f
8:12pm 25 32 mph 1010.9mb 54f 55f
8:06pm 22 31 mph 1010.9mb 54f 54f
8:00pm 28 32 mph 1011mb 54f 54f
7:54pm 29 33 mph 1011.1mb 54f 54f
7:48pm 22 30 mph 1011.2mb 54f 54f
7:42pm 26 34 mph 1011.3mb 54f 54f
7:36pm 25 31 mph 1011.4mb 54f 54f
7:30pm 22 29 mph 1011.6mb 54f 54f
7:24pm 23 30 mph 1011.7mb 54f 54f
7:18pm 22 26 mph 1011.9mb 54f 54f
7:12pm 21 25 mph 1012.1mb 54f 54f
7:06pm 21 25 mph 1012.3mb 54f 54f
7:00pm 21 25 mph 1012.4mb 54f 55f
6:48pm 21 25 mph 1012.7mb 54f 54f
6:42pm 22 25 mph 1012.7mb 54f 54f
6:36pm 20 23 mph 1012.9mb 54f 54f
6:30pm 20 23 mph 1013mb 54f 54f
6:24pm 22 25 mph 1013.1mb 54f 54f
6:18pm 23 28 mph 1013.2mb 54f 55f
6:12pm 20 23 mph 1013.3mb 54f 55f
6:06pm 16 20 mph 1013.5mb 54f 55f
6:00pm 15 18 mph 1013.7mb 54f 54f
5:54pm 15 20 mph 1013.7mb 54f 55f
5:48pm 17 21 mph 1013.7mb 54f 56f
5:42pm 16 20 mph 1013.8mb 54f 55f
5:36pm 15 20 mph 1013.9mb 54f 55f
5:30pm 18 22 mph 1014mb 54f 55f
5:24pm 17 21 mph 1014.1mb 54f 55f
5:18pm 17 21 mph 1014.2mb 54f 55f
5:12pm 17 20 mph 1014.3mb 54f 55f
5:06pm 15 18 mph 1014.5mb 54f 54f
5:00pm 17 20 mph 1014.5mb 54f 55f
4:54pm 16 20 mph 1014.7mb 54f 55f
4:48pm 18 21 mph 1014.7mb 53f 55f
4:42pm 18 22 mph 1014.7mb 53f 55f
4:36pm 15 20 mph 1014.9mb 53f 54f
4:30pm 16 18 mph 1014.9mb 53f 54f
4:24pm 15 17 mph 1015mb 53f 54f
4:18pm 14 17 mph 1015.1mb 53f 55f
4:12pm 13 16 mph 1015.2mb 53f 54f
4:06pm 13 15 mph 1015.3mb 53f 54f
4:00pm 14 16 mph 1015.3mb 53f 54f
3:54pm 15 16 mph 1015.3mb 53f 54f
3:48pm 15 17 mph 1015.4mb 53f 55f
3:42pm 16 18 mph 1015.3mb 53f 55f
3:36pm 15 18 mph 1015.4mb 53f 55f
3:30pm 16 18 mph 1015.4mb 53f 55f
3:24pm 16 18 mph 1015.5mb 53f 55f
3:18pm 15 17 mph 1015.6mb 53f 55f
3:12pm 15 17 mph 1015.7mb 53f 55f
3:06pm 14 15 mph 1015.8mb 53f 55f
3:00pm 13 15 mph 1015.8mb 53f 55f
2:54pm 13 16 mph 1015.8mb 53f 55f
2:48pm 14 17 mph 1015.8mb 53f 55f
2:42pm 14 16 mph 1015.8mb 53f 55f
2:36pm 16 17 mph 1015.8mb 53f 56f
2:30pm 15 18 mph 1015.8mb 53f 55f
2:24pm 15 16 mph 1016mb 53f 55f
2:18pm 15 17 mph 1016.1mb 53f 55f
2:12pm 15 16 mph 1016.1mb 53f 55f
2:06pm 14 16 mph 1016.1mb 53f 55f
2:00pm 14 15 mph 1016.2mb 53f 55f
1:54pm 14 15 mph 1016.3mb 53f 55f
1:48pm 14 15 mph 1016.4mb 53f 55f
1:42pm 13 14 mph 1016.4mb 53f 55f
1:36pm 13 15 mph 1016.4mb 53f 55f
1:30pm 13 14 mph 1016.4mb 53f 55f
1:24pm 13 14 mph 1016.5mb 53f 55f
1:18pm 10 13 mph 1016.6mb 53f 55f
1:12pm 6 8 mph 1016.6mb 53f 55f
1:06pm 2 7 mph 1016.6mb 53f 55f
1:00pm 8 10 mph 1016.5mb 53f 55f
12:54pm 7 10 mph 1016.6mb 53f 56f
12:48pm 9 10 mph 1016.6mb 53f 57f
12:42pm 8 10 mph 1016.6mb 53f 56f
12:36pm 9 14 mph 1016.6mb 53f 57f
12:30pm 10 11 mph 1016.7mb 53f 56f
12:24pm 6 9 mph 1016.7mb 53f 55f
12:18pm 10 20 mph 1016.7mb 53f 55f
12:12pm 18 21 mph 1016.7mb 53f 55f
12:06pm 14 16 mph 1016.7mb 53f 56f
12:00pm 14 15 mph 1016.7mb 53f 56f
11:54am 14 16 mph 1016.6mb 53f 56f
11:48am 15 16 mph 1016.7mb 53f 57f
11:42am 13 15 mph 1016.6mb 53f 57f
11:36am 13 14 mph 1016.6mb 53f 57f
11:30am 11 14 mph 1016.7mb 53f 57f
11:24am 14 16 mph 1016.7mb 53f 57f
11:18am 13 15 mph 1016.6mb 53f 56f
11:12am 13 14 mph 1016.6mb 53f 56f
11:06am 11 13 mph 1016.6mb 53f 56f
11:00am 10 13 mph 1016.6mb 53f 56f
10:54am 10 14 mph 1016.6mb 53f 56f
10:48am 13 14 mph 1016.6mb 53f 56f
10:42am 11 13 mph 1016.7mb 53f 56f
10:36am 11 14 mph 1016.6mb 53f 56f
10:30am 10 13 mph 1016.7mb 53f 56f
10:24am 9 11 mph 1016.7mb 53f 56f
10:18am 5 7 mph 1016.6mb 53f 56f
10:12am  -  6 mph 1016.7mb 53f 57f
10:06am 2 5 mph 1016.7mb 53f 58f
10:00am 2 3 mph 1016.6mb 53f 58f
9:54am 3 6 mph 1016.5mb 53f 59f
9:48am 3 5 mph 1016.5mb 53f 58f
9:42am 2 6 mph 1016.5mb 53f 57f
9:36am  -  2 mph 1016.5mb 53f 57f
9:30am 1 5 mph 1016.4mb 53f 57f
9:24am 2 3 mph 1016.3mb 53f 56f
9:18am  -  3 mph 1016.1mb 53f 56f
9:12am 2 3 mph 1016.1mb 53f 56f
9:06am  -  5 mph 1016mb 53f 56f
9:00am 3 5 mph 1015.9mb 53f 56f
8:54am 1 3 mph 1016mb 53f 57f
8:48am 1 5 mph 1016mb 53f 57f
8:42am 2 6 mph 1016mb 53f 58f
8:36am 5 6 mph 1016mb 53f 58f
8:30am 3 6 mph 1016mb 53f 57f
8:24am 5 6 mph 1015.9mb 53f 56f
8:18am 3 8 mph 1015.9mb 53f 56f
8:12am 5 8 mph 1015.9mb 53f 56f
8:06am 6 8 mph 1015.7mb 53f 56f
8:00am 5 6 mph 1015.7mb 53f 56f
7:54am 2 6 mph 1015.6mb 53f 56f
7:48am 3 7 mph 1015.7mb 53f 56f
7:42am 3 6 mph 1015.7mb 53f 56f
7:36am 5 7 mph 1015.7mb 53f 56f
7:30am 1 3 mph 1015.6mb 53f 55f
7:24am 3 5 mph 1015.6mb 53f 55f
7:18am 5 6 mph 1015.6mb 53f 55f
7:12am 2 5 mph 1015.6mb 53f 55f
7:06am  -  5 mph 1015.5mb 53f 55f
7:00am 2 2 mph 1015.5mb 53f 55f
6:54am  -  2 mph 1015.4mb 53f 55f
6:48am 1 8 mph 1015.4mb 53f 56f
6:42am 5 8 mph 1015.3mb 53f 56f
6:36am 6 8 mph 1015.3mb 53f 56f
6:30am 5 8 mph 1015.2mb 53f 56f
6:24am 2 6 mph 1015.1mb 53f 55f
6:18am 3 7 mph 1015.2mb 53f 55f
6:12am 2 7 mph 1015.2mb 53f 55f
6:06am 7 10 mph 1015.1mb 53f 55f
6:00am 5 6 mph 1015.2mb 53f 55f
5:54am 3 6 mph 1015.2mb 53f 54f
5:48am 6 7 mph 1015.1mb 53f 55f
5:42am 5 9 mph 1015mb 53f 55f
5:36am 7 11 mph 1015mb 53f 55f
5:30am 7 10 mph 1014.9mb 53f 55f
5:24am 7 10 mph 1015mb 53f 55f
5:18am 2 5 mph 1015.1mb 53f 55f
5:12am 5 6 mph 1015.1mb 53f 55f
5:06am 7 9 mph 1015mb 53f 54f
5:00am 2 7 mph 1015mb 53f 54f
4:54am 3 9 mph 1014.9mb 53f 54f
4:48am 7 11 mph 1014.9mb 53f 54f
4:42am 9 14 mph 1014.9mb 53f 55f
4:36am 10 15 mph 1015mb 53f 55f
4:30am 3 10 mph 1015mb 53f 55f
4:24am 11 14 mph 1014.8mb 53f 55f
4:18am 6 10 mph 1014.8mb 53f 55f
4:12am 2 5 mph 1014.9mb 53f 55f
4:06am  -  1 mph 1014.9mb 53f 54f
4:00am  -  2 mph 1015mb 53f 54f
3:54am 2 5 mph 1014.9mb 53f 54f
3:48am 2 6 mph 1014.9mb 53f 54f
3:42am 3 6 mph 1014.9mb 53f 54f
3:36am 2 8 mph 1015mb 53f 54f
3:30am 5 7 mph 1014.9mb 53f 54f
3:24am 2 5 mph 1014.9mb 53f 54f
3:18am  -  2 mph 1014.9mb 53f 54f
3:12am 2 6 mph 1014.8mb 53f 54f
3:06am 3 8 mph 1014.9mb 53f 54f
3:00am 7 13 mph 1014.9mb 53f 55f
2:54am 9 16 mph 1014.8mb 53f 55f
2:48am 13 18 mph 1014.7mb 53f 55f
2:42am 13 17 mph 1014.7mb 53f 55f
2:36am 15 17 mph 1014.6mb 53f 55f
2:30am 8 13 mph 1014.8mb 53f 54f
2:24am 11 16 mph 1014.7mb 53f 54f
2:18am 13 16 mph 1014.6mb 53f 54f
2:12am 13 18 mph 1014.7mb 53f 54f
2:06am 13 18 mph 1014.7mb 53f 54f
2:00am 13 15 mph 1014.9mb 53f 54f
1:54am 8 10 mph 1014.9mb 53f 54f
1:48am 9 11 mph 1014.8mb 53f 54f
1:42am 10 14 mph 1014.9mb 53f 54f
1:36am 11 16 mph 1014.8mb 53f 54f
1:30am 13 15 mph 1014.8mb 53f 54f
1:24am 14 15 mph 1014.8mb 53f 55f
1:18am 14 16 mph 1014.8mb 53f 55f
1:12am 14 15 mph 1014.7mb 53f 55f
1:06am 15 16 mph 1014.7mb 53f 55f
1:00am 14 17 mph 1014.6mb 53f 54f
12:54am 14 17 mph 1014.7mb 53f 54f
12:48am 16 18 mph 1014.7mb 53f 54f
12:42am 11 16 mph 1014.7mb 53f 54f
12:36am 13 20 mph 1014.7mb 53f 54f
12:30am 16 18 mph 1014.6mb 53f 55f
12:24am 15 17 mph 1014.7mb 53f 55f
12:18am 13 17 mph 1014.7mb 53f 54f
12:12am 14 16 mph 1014.6mb 53f 55f
12:06am 14 15 mph 1014.7mb 53f 54f
12:00am 11 14 mph 1014.7mb 53f 54f
Mon 09/18 11:54pm 13 15 mph 1014.6mb 53f 54f
11:48pm 15 17 mph 1014.5mb 53f -
11:42pm 15 17 mph 1014.6mb 53f -
11:36pm 15 17 mph 1014.6mb 53f -
11:30pm 11 14 mph 1014.7mb 53f 54f
11:24pm 14 16 mph 1014.7mb 53f 54f
11:18pm 14 16 mph 1014.6mb 53f 54f
11:12pm 11 14 mph 1014.7mb 53f 54f
11:06pm 9 15 mph 1014.7mb 53f 54f
11:00pm 14 17 mph 1014.5mb 53f 55f
10:54pm 14 16 mph 1014.5mb 53f 55f
10:48pm 13 14 mph 1014.7mb 53f 55f
10:42pm 11 15 mph 1014.7mb 53f 55f
10:36pm 14 15 mph 1014.6mb 53f 55f
10:30pm 14 17 mph 1014.6mb 53f 55f
10:24pm 14 16 mph 1014.6mb 53f 55f
10:18pm 14 16 mph 1014.5mb 53f 55f
10:12pm 10 14 mph 1014.5mb 53f 55f
10:06pm 14 16 mph 1014.6mb 53f 54f
10:00pm 14 18 mph 1014.5mb 53f 54f
9:54pm 16 18 mph 1014.5mb 53f 55f
9:48pm 11 14 mph 1014.7mb 53f 54f
9:42pm 11 13 mph 1014.7mb 53f 54f
9:36pm 13 14 mph 1014.7mb 53f 54f
9:30pm 11 14 mph 1014.6mb 53f 54f
9:24pm 11 14 mph 1014.8mb 53f 55f
9:18pm 13 16 mph 1014.7mb 53f 55f
9:12pm 15 17 mph 1014.7mb 53f 55f
9:06pm 15 17 mph 1014.7mb 53f 55f
9:00pm 14 17 mph 1014.6mb 53f 55f
8:54pm 16 21 mph 1014.5mb 53f 55f
8:48pm 18 21 mph 1014.5mb 53f 55f
8:42pm 18 21 mph 1014.3mb 53f 55f
8:36pm 15 16 mph 1014.2mb 53f 55f
8:30pm 14 15 mph 1014.1mb 53f 54f
8:24pm 13 16 mph 1014.1mb 53f 54f
8:18pm 15 17 mph 1014mb 53f 54f
8:12pm 16 18 mph 1014mb 53f 54f
8:06pm 17 18 mph 1013.9mb 53f 54f
8:00pm 17 20 mph 1013.8mb 53f 54f
7:54pm 17 18 mph 1013.8mb 53f 55f
7:48pm 14 17 mph 1014mb 53f 54f
7:42pm 15 17 mph 1014mb 53f 54f
7:36pm 15 17 mph 1013.9mb 53f 54f
7:30pm 15 16 mph 1013.9mb 53f 54f
7:24pm 14 17 mph 1014.1mb 53f 54f
7:18pm 15 20 mph 1014.2mb 53f 55f
7:12pm 17 21 mph 1014.2mb 53f 55f
7:06pm 16 22 mph 1014.2mb 53f 55f
7:00pm 16 20 mph 1014.2mb 53f 55f
6:54pm 16 20 mph 1014.3mb 53f 55f
6:48pm 16 20 mph 1014.3mb 53f 55f
6:42pm 16 18 mph 1014.4mb 53f 55f
6:36pm 16 20 mph 1014.4mb 53f 55f
6:30pm 15 17 mph 1014.4mb 53f 55f
6:24pm 14 17 mph 1014.4mb 53f 55f
6:18pm 14 16 mph 1014.3mb 53f 55f
6:12pm 13 15 mph 1014.4mb 53f 55f
6:06pm 13 15 mph 1014.4mb 53f 55f
6:00pm 13 15 mph 1014.5mb 53f 54f
5:54pm 13 15 mph 1014.6mb 53f 55f
5:48pm 13 14 mph 1014.6mb 53f 55f
5:42pm 11 14 mph 1014.5mb 53f 54f
5:36pm 11 14 mph 1014.6mb 53f 55f
5:30pm 13 14 mph 1014.6mb 53f 55f
5:24pm 11 15 mph 1014.6mb 53f 54f
5:18pm 13 14 mph 1014.7mb 53f 54f
5:12pm 11 14 mph 1014.7mb 53f 54f
5:06pm 13 14 mph 1014.7mb 53f 54f
5:00pm 11 15 mph 1014.6mb 53f 54f
4:54pm 13 14 mph 1014.7mb 53f 54f
4:48pm 13 15 mph - - -
4:42pm 13 15 mph - - -
4:36pm 13 14 mph - - -
4:30pm 13 14 mph 1014.8mb 53f 54f
4:24pm 13 15 mph 1014.8mb 53f 54f
4:18pm 14 16 mph 1014.8mb 53f 54f
4:12pm 15 16 mph 1014.7mb 53f 54f
4:06pm 14 15 mph 1014.7mb 53f 54f
4:00pm 13 14 mph 1014.8mb 53f 55f
3:54pm 13 15 mph 1014.8mb 53f 55f
3:48pm 15 16 mph 1014.8mb 53f 55f
3:42pm 14 17 mph 1014.8mb 53f 56f
3:36pm 15 17 mph 1014.8mb 53f 56f
3:30pm 15 18 mph 1014.8mb 53f 56f
3:24pm 14 16 mph 1014.8mb 53f 56f
3:18pm 15 17 mph 1014.8mb 53f 56f
3:12pm 16 20 mph 1014.7mb 53f 56f
3:06pm 15 18 mph 1014.8mb 53f 56f
3:00pm 16 18 mph 1014.9mb 53f 56f
2:54pm 14 16 mph 1014.9mb 53f 56f
2:48pm 13 15 mph 1014.9mb 53f 56f
2:42pm 15 16 mph 1014.9mb 53f 56f
2:36pm 15 17 mph 1015mb 53f 56f
2:30pm 15 16 mph 1014.9mb 53f 56f
2:24pm 15 16 mph 1015mb 53f 56f
2:18pm 14 15 mph 1015.1mb 53f 56f
2:12pm 14 15 mph 1015.2mb 53f 56f
2:06pm 13 15 mph 1015.2mb 53f 56f
2:00pm 14 15 mph 1015.3mb 52f 56f
1:54pm 10 14 mph 1015.2mb 52f 55f
1:48pm 8 11 mph 1015.3mb 52f 55f
1:42pm 11 15 mph 1015.3mb 52f 55f
1:36pm 13 14 mph 1015.3mb 52f 55f
1:30pm 14 16 mph 1015.3mb 52f 56f
1:24pm 13 14 mph 1015.3mb 52f 55f
1:18pm 11 15 mph 1015.2mb 52f 55f
1:12pm 14 15 mph 1015.2mb 52f 56f
1:06pm 7 13 mph 1015.2mb 52f 55f
1:00pm 11 14 mph 1015.2mb 52f 55f
12:54pm 10 14 mph 1015.2mb 52f 55f
12:48pm 11 14 mph 1015.3mb 52f 56f
12:42pm 10 11 mph 1015.4mb 52f 55f
12:36pm 9 13 mph 1015.4mb 52f 55f
12:30pm 11 13 mph 1015.2mb 52f 56f
12:24pm 8 10 mph 1015.3mb 52f 55f
12:18pm 9 11 mph 1015.3mb 52f 55f
12:12pm 9 13 mph 1015.3mb 52f 55f
12:06pm 10 13 mph 1015.2mb 52f 56f
12:00pm 11 14 mph 1015.2mb 52f 55f
11:54am 14 15 mph 1015.2mb 52f 56f
11:48am 10 13 mph 1015.2mb 52f 55f
11:42am 8 8 mph 1015.2mb 52f 55f
11:36am 2 3 mph 1015.2mb 52f 55f
11:30am  -  5 mph 1015.3mb 52f 56f
11:24am  -  1 mph 1015.2mb 52f 56f
11:18am 1 2 mph 1015.3mb 52f 56f
11:12am  -  2 mph 1015.3mb 52f 56f
11:06am  -  2 mph 1015.3mb 52f 55f
11:00am  -  3 mph 1015.3mb 52f 55f
10:54am 1 3 mph 1015.3mb 52f 55f
10:48am 1 3 mph 1015.2mb 52f 54f
10:42am 5 6 mph 1015.2mb 52f 54f
10:36am 7 7 mph 1015.1mb 52f 54f
10:30am 3 6 mph 1015.2mb 52f 53f
10:24am 3 5 mph 1015.2mb 52f 54f
10:18am 3 5 mph 1015.2mb 52f 53f
10:12am 3 5 mph 1015.2mb 52f 54f
10:06am  -  3 mph 1015.1mb 52f 54f
10:00am 3 5 mph 1015mb 52f 54f
9:54am 3 6 mph 1015mb 52f 54f
9:48am 5 6 mph 1015mb 52f 54f
9:42am 3 7 mph 1014.9mb 52f 54f
9:36am 7 8 mph 1014.9mb 52f 55f
9:30am 8 14 mph 1014.7mb 52f 55f
9:24am 6 17 mph 1014.7mb 52f 55f
9:18am 14 20 mph 1014.6mb 52f 55f
9:12am 10 13 mph 1014.4mb 52f 54f
9:06am 8 9 mph 1014.3mb 52f 53f
9:00am 8 10 mph 1014.2mb 52f 54f
8:54am 3 6 mph 1014.2mb 52f 54f
8:48am 3 6 mph 1014.3mb 52f 54f
8:42am 2 5 mph 1014.3mb 52f 55f
8:36am 3 5 mph 1014.4mb 52f 55f
8:30am 2 3 mph 1014.3mb 52f 55f
8:24am  -  1 mph 1014.3mb 52f 55f
8:18am 1 2 mph 1014.4mb 52f 55f
8:12am  -  1 mph 1014.4mb 52f 54f
8:06am  -  1 mph 1014.4mb 52f 54f
8:00am  -  1 mph 1014.4mb 52f 54f
7:54am  -  2 mph 1014.3mb 52f 54f
7:48am  -  2 mph 1014.3mb 52f 54f
7:42am 2 2 mph 1014.2mb 52f 55f
7:36am 2 3 mph 1014.2mb 52f 54f
7:30am 2 3 mph 1014.2mb 52f 54f
7:24am 3 3 mph 1014.2mb 52f 54f
7:18am 3 3 mph 1014.2mb 52f 55f
7:12am 3 3 mph 1014.3mb 52f 55f
7:06am 3 5 mph 1014.1mb 52f 55f
7:00am 3 3 mph 1014mb 52f 55f
6:54am 3 5 mph 1013.8mb 52f 54f
6:48am 3 5 mph 1013.7mb 52f 54f
6:42am 5 5 mph 1013.7mb 52f 54f
6:36am 2 3 mph 1013.6mb 52f 55f
6:30am 3 3 mph 1013.6mb 52f 54f
6:24am 2 2 mph 1013.7mb 52f 54f
6:18am 2 5 mph 1013.7mb 52f 54f
6:12am  -  2 mph 1013.7mb 52f 54f
6:06am 1 2 mph 1013.7mb 52f 54f
6:00am 1 3 mph 1013.7mb 52f 54f
5:54am 1 3 mph 1013.8mb 52f 54f
5:48am 2 3 mph 1013.8mb 52f 55f
5:42am 2 3 mph 1013.9mb 52f 55f
5:36am 3 5 mph 1013.8mb 52f 55f
5:30am 3 5 mph 1013.9mb 52f 55f
5:24am 3 5 mph 1013.8mb 52f 55f
5:18am 2 3 mph 1013.8mb 52f 55f
5:12am 1 2 mph 1013.7mb 52f 55f
5:06am  -  2 mph 1013.8mb 52f 55f
5:00am 1 3 mph 1013.8mb 52f 55f
4:54am 2 3 mph 1013.8mb 52f 55f
4:48am 3 5 mph 1013.8mb 52f 55f
4:42am 3 3 mph 1013.9mb 52f 55f
4:36am 3 3 mph 1014mb 52f 55f
4:30am 3 3 mph 1014mb 52f 55f
4:24am 3 3 mph 1014mb 52f 55f
4:18am 2 3 mph 1014mb 52f 55f
4:12am 1 2 mph 1014.1mb 52f 55f
4:06am 2 3 mph 1014.1mb 52f 56f
4:00am 2 5 mph 1014.2mb 52f 56f
3:54am 2 5 mph 1014.2mb 52f 55f
3:48am 5 6 mph 1014.2mb 52f 55f
3:42am 5 6 mph 1014.3mb 52f 55f
3:36am 5 5 mph 1014.3mb 52f 55f
3:30am 5 6 mph 1014.4mb 52f 55f
3:24am 3 7 mph 1014.3mb 52f 55f
3:18am 2 5 mph 1014.3mb 52f 55f
3:12am 1 6 mph 1014.3mb 52f 55f
3:06am 3 5 mph 1014.4mb 52f 55f
3:00am 3 6 mph 1014.4mb 52f 55f
2:54am 3 5 mph 1014.4mb 52f 54f
2:48am 3 5 mph 1014.5mb 52f 55f
2:42am 3 5 mph 1014.5mb 52f 54f
2:36am  -  2 mph 1014.5mb 52f 54f
2:30am 1 2 mph 1014.6mb 52f 54f
2:24am 2 2 mph 1014.6mb 52f 54f
2:18am  -  1 mph 1014.7mb 52f 54f
2:12am  -  3 mph 1014.7mb 52f 54f
2:06am 2 2 mph 1014.6mb 52f 54f
2:00am 2 3 mph 1014.6mb 52f 54f
1:54am 3 5 mph 1014.4mb 52f 54f
1:48am 3 5 mph 1014.3mb 52f 55f
1:42am 5 5 mph 1014.2mb 52f 55f
1:36am 5 6 mph 1014.1mb 52f 55f
1:30am 5 6 mph 1014.1mb 52f 55f
1:24am 5 5 mph 1014mb 52f 56f
1:18am 2 3 mph 1013.9mb 52f 56f
1:12am 3 5 mph 1013.9mb 52f 55f
1:06am 3 5 mph 1013.8mb 52f 55f
1:00am 2 5 mph 1013.8mb 52f 55f
12:54am 5 6 mph 1013.8mb 52f 55f
12:48am 2 3 mph 1013.9mb 52f 55f
12:42am  -  7 mph 1014mb 52f 55f
12:36am 7 8 mph 1014mb 52f 55f
12:30am 6 7 mph 1014mb 52f 54f
12:24am 7 7 mph 1014mb 52f 54f
12:18am 6 7 mph 1014.1mb 52f 54f
12:12am 6 7 mph 1014.1mb 52f 54f
12:06am 6 7 mph 1014mb 52f 54f
12:00am 3 5 mph 1014mb 52f 54f
Sun 09/17 11:54pm  -  5 mph 1014mb 52f 54f
11:48pm 3 8 mph 1014mb - -
11:42pm 7 9 mph 1014.1mb - -
11:36pm 8 11 mph 1013.9mb - -
11:30pm 8 10 mph 1013.9mb 52f 54f
11:24pm 10 11 mph 1014mb 52f 54f
11:18pm 9 14 mph 1014mb 52f 54f
11:12pm 10 13 mph 1014mb 52f 54f
11:06pm 9 13 mph 1014.1mb 52f 54f
11:00pm 10 14 mph 1014.1mb 52f 54f
10:54pm 14 16 mph 1014mb 52f 55f
10:48pm 14 15 mph 1013.8mb 52f 54f
10:42pm 13 16 mph 1013.8mb 52f 54f
10:36pm 13 16 mph 1013.8mb 52f 54f
10:30pm 11 14 mph 1013.8mb 52f 54f
10:24pm 13 16 mph 1013.7mb 52f 54f
10:18pm 14 16 mph 1013.6mb 52f 54f
10:12pm 13 15 mph 1013.7mb 52f 54f
10:06pm 11 14 mph 1013.7mb 52f 54f
10:00pm 10 11 mph 1013.8mb 52f 54f
9:54pm 8 10 mph 1013.8mb 52f 54f
9:48pm 7 9 mph 1013.9mb 52f 53f
9:42pm 7 9 mph 1014mb 52f 53f
9:36pm 8 11 mph 1014.1mb 52f 53f
9:30pm 9 11 mph 1014.1mb 52f 54f
9:24pm 10 13 mph 1014.2mb 52f 54f
9:18pm 10 14 mph 1014.3mb 52f 53f
9:12pm 11 13 mph 1014.3mb 52f 53f
9:06pm 11 14 mph 1014.3mb 52f 53f
9:00pm 11 14 mph 1014.4mb 52f 54f
8:54pm 11 14 mph 1014.4mb 52f 54f
8:48pm 11 14 mph 1014.4mb 52f 54f
8:42pm 10 13 mph 1014.4mb 52f 54f
8:36pm 10 13 mph 1014.4mb 52f 54f
8:30pm 9 11 mph 1014.4mb 52f 54f
8:24pm 8 9 mph 1014.3mb 52f 54f
8:18pm 7 8 mph 1014.5mb 52f 55f
8:12pm 7 8 mph 1014.5mb 52f 54f
8:06pm 8 10 mph 1014.4mb 52f 55f
8:00pm 6 8 mph 1014.4mb 52f 54f
7:54pm 7 8 mph 1014.5mb 52f 54f
7:48pm 3 7 mph 1014.6mb 52f 54f
7:42pm 5 8 mph 1014.6mb 52f 54f
7:36pm 7 8 mph 1014.6mb 52f 54f
7:30pm 7 8 mph 1014.6mb 52f 54f
7:24pm 7 9 mph 1014.7mb 52f 54f
7:18pm 6 7 mph 1014.7mb 52f 54f
7:12pm 6 8 mph 1014.8mb 52f 54f
7:06pm 7 8 mph 1014.8mb 52f 55f
7:00pm 5 7 mph 1014.7mb 52f 54f
6:54pm 7 8 mph 1014.7mb 52f 54f
6:48pm 8 13 mph 1014.5mb 52f 55f
6:42pm 11 16 mph 1014.4mb 52f 55f
6:36pm 13 15 mph 1014.3mb 52f 55f
6:30pm 11 14 mph 1014.4mb 52f 54f
6:24pm 11 15 mph 1014.4mb 52f 55f
6:18pm 14 16 mph 1014.4mb 52f 55f
6:12pm 14 15 mph 1014.4mb 52f 55f
6:06pm 14 17 mph 1014.4mb 52f 55f
6:00pm 15 18 mph 1014.4mb 52f 56f
5:54pm 14 16 mph 1014.4mb 52f 57f
5:48pm 9 13 mph 1014.4mb 52f 57f
5:42pm 11 13 mph 1014.4mb 52f 57f
5:36pm 10 13 mph 1014.6mb 52f 57f
5:30pm 10 11 mph 1014.7mb 52f 57f
5:24pm 9 15 mph 1014.8mb 52f 57f
5:18pm 13 14 mph 1014.9mb 52f 58f
5:12pm 13 15 mph 1014.9mb 52f 58f
5:06pm 14 16 mph 1014.9mb 51f 58f
5:00pm 14 16 mph 1015mb 51f 58f
4:54pm 15 17 mph 1014.9mb 51f 58f
4:48pm 14 18 mph 1014.9mb 51f 58f
4:42pm 15 20 mph 1014.8mb 51f 58f
4:36pm 15 22 mph 1014.9mb 51f 59f
4:30pm 15 20 mph 1014.9mb 51f 58f
4:24pm 14 17 mph 1014.9mb 51f 58f
4:18pm 14 16 mph 1015mb 51f 57f
4:12pm 14 15 mph 1015.2mb 51f 58f
4:06pm 13 15 mph 1015.3mb 51f 57f
4:00pm 10 11 mph 1015.4mb 51f 56f
3:54pm 10 14 mph 1015.4mb 51f 56f
3:48pm 14 15 mph 1015.4mb 51f 57f
3:42pm 11 15 mph 1015.3mb 51f 56f
3:36pm 13 16 mph 1015.4mb 51f 56f
3:30pm 13 16 mph 1015.5mb 51f 55f
3:24pm 14 16 mph 1015.4mb 51f 55f
3:18pm 13 17 mph 1015.4mb 51f 55f
3:12pm 15 18 mph 1015.4mb 51f 55f
3:06pm 14 17 mph 1015.4mb 51f 55f
3:00pm 14 18 mph 1015.3mb 51f 55f
2:54pm 15 18 mph 1015.4mb 51f 55f
2:48pm 16 20 mph 1015.4mb 51f 56f
2:42pm 17 20 mph 1015.4mb 51f 56f
2:36pm 16 21 mph 1015.3mb 51f 56f
2:30pm 17 21 mph 1015.3mb 51f 56f
2:24pm 17 21 mph 1015.4mb 51f 56f
2:18pm 17 20 mph 1015.5mb 51f 56f
2:12pm 16 18 mph 1015.8mb 51f 56f
2:06pm 16 20 mph 1015.7mb 51f 56f
2:00pm 16 18 mph 1015.7mb 51f 56f
1:54pm 14 18 mph 1015.7mb 51f 55f
1:48pm 15 17 mph 1015.6mb 51f 55f
1:42pm 14 18 mph 1015.7mb 51f 55f
1:36pm 16 21 mph 1015.8mb 51f 55f
1:30pm 16 21 mph 1015.8mb 51f 55f
1:24pm 16 20 mph 1015.9mb 51f 55f
1:18pm 15 17 mph 1015.9mb 51f 55f
1:12pm 16 18 mph 1015.7mb 51f 55f
1:06pm 16 20 mph 1015.7mb 51f 55f
1:00pm 17 20 mph 1015.6mb 51f 55f
12:54pm 16 18 mph 1015.6mb 51f 54f
12:48pm 15 20 mph 1015.7mb 51f 54f
12:42pm 17 22 mph 1015.6mb 51f 55f
12:36pm 17 20 mph 1015.5mb 51f 55f
12:30pm 18 22 mph 1015.5mb 51f 55f
12:24pm 18 21 mph 1015.5mb 51f 55f
12:18pm 17 22 mph 1015.6mb 51f 55f
12:12pm 18 22 mph 1015.7mb 51f 55f
12:06pm 16 17 mph 1015.8mb 51f 55f
12:00pm 15 18 mph 1015.8mb 51f 54f
11:54am 16 17 mph 1015.8mb 51f 55f
11:48am 14 15 mph 1015.8mb 51f 55f
11:42am 13 15 mph 1015.7mb 50f 54f
11:36am 14 17 mph 1015.6mb 50f 54f
11:30am 15 17 mph 1015.6mb 50f 55f
11:24am 15 18 mph 1015.6mb 50f 55f
11:18am 14 17 mph 1015.5mb 50f 55f
11:12am 13 14 mph 1015.5mb 50f 54f
11:06am 9 11 mph 1015.5mb 50f 54f
11:00am 5 7 mph 1015.7mb 50f 53f
10:54am 6 8 mph 1015.7mb 50f 53f
10:48am 8 10 mph 1015.6mb 50f 53f
10:42am 9 11 mph 1015.6mb 50f 53f
10:36am 10 13 mph 1015.5mb 50f 53f
10:30am 11 13 mph 1015.5mb 50f 54f
10:24am 11 13 mph 1015.4mb 50f 54f
10:18am 11 14 mph 1015.4mb 50f 54f
10:12am 13 14 mph 1015.3mb 50f 55f
10:06am 10 11 mph 1015.4mb 50f 54f
10:00am 10 13 mph 1015.5mb 50f 54f
9:54am 10 11 mph 1015.4mb 50f 54f
9:48am 9 11 mph 1015.3mb 50f 54f
9:42am 9 10 mph 1015.2mb 50f 54f
9:36am 9 10 mph 1015.2mb 50f 54f
9:30am 3 6 mph 1015.5mb 50f 54f
9:24am 2 3 mph 1015.5mb 50f 55f
9:18am 2 5 mph 1015.7mb 50f 55f
9:12am 2 3 mph 1015.7mb 50f 55f
9:06am 3 6 mph 1015.7mb 50f 55f
9:00am 3 6 mph 1015.6mb 50f 55f
8:54am 1 3 mph 1015.8mb 50f 55f
8:48am 2 2 mph 1015.8mb 50f 54f
8:42am 3 5 mph 1015.8mb 50f 54f
8:36am 3 6 mph 1015.7mb 50f 54f
8:30am 3 6 mph 1015.7mb 50f 54f
8:24am 2 3 mph 1015.8mb 50f 54f
8:18am 2 5 mph 1015.8mb 50f 54f
8:12am 3 5 mph 1015.8mb 50f 54f
8:06am 3 5 mph 1015.8mb 50f 53f
8:00am 3 6 mph 1015.7mb 50f 53f
7:54am 5 7 mph 1015.6mb 50f 53f
7:48am 3 5 mph 1015.4mb 50f 53f
7:42am 2 3 mph 1015.4mb 50f 53f
7:36am 2 5 mph 1015.6mb 50f 53f
7:30am 2 3 mph 1015.5mb 50f 53f
7:24am 1 2 mph 1015.4mb 50f 53f
7:18am 1 2 mph 1015.3mb 50f 53f
7:12am 3 5 mph 1015.5mb 50f 53f
7:06am 3 5 mph 1015.7mb 50f 53f
7:00am 3 5 mph 1015.9mb 50f 53f
6:54am  -  2 mph 1015.7mb 50f 52f
6:48am 1 1 mph 1015.6mb 50f 53f
6:42am 1 3 mph 1015.5mb 50f 53f
6:36am 2 3 mph 1015.5mb 50f 53f
6:30am 2 3 mph 1015.6mb 50f 53f
6:24am 2 5 mph 1015.3mb 50f 53f
6:18am 5 7 mph 1015.5mb 50f 53f
6:12am 3 5 mph 1015.4mb 50f 53f
6:06am 2 3 mph 1015.4mb 50f 53f
6:00am 1 2 mph 1015.4mb 50f 53f
5:54am 2 2 mph 1015.3mb 50f 53f
5:48am 2 3 mph 1015.2mb 50f 53f
5:42am 2 3 mph 1015.2mb 50f 53f
5:36am 2 5 mph 1015.3mb 50f 54f
5:30am 2 3 mph 1015.4mb 50f 53f
5:24am  -  1 mph 1015.4mb 50f 52f
5:18am  -  2 mph 1015.4mb 50f 52f
5:12am 1 2 mph 1015.4mb 50f 52f
5:06am 2 2 mph 1015.4mb 50f 52f
5:00am 2 2 mph 1015.4mb 50f 54f
4:54am  -  3 mph 1015.5mb 50f 53f
4:48am  -  1 mph 1015.5mb 50f 53f
4:42am  -  2 mph 1015.5mb 50f 53f
4:36am 1 3 mph 1015.3mb 50f 53f
4:30am 1 2 mph 1015.1mb 50f 53f
4:24am  -  1 mph 1015mb 50f 53f
4:18am  -  2 mph 1015.1mb 50f 53f
4:12am  -  2 mph 1015.2mb 50f 53f
4:06am 2 2 mph 1015.2mb 50f 53f
4:00am 2 2 mph 1015.1mb 50f 53f
3:54am  -  2 mph 1015.1mb 50f 53f
3:48am 1 2 mph 1015.3mb 50f 52f
3:42am  -  1 mph 1015.2mb 50f 52f
3:36am  -  1 mph 1015.3mb 50f 52f
3:30am  -  1 mph 1015.3mb 50f 52f
3:24am  -  0 mph 1015.5mb 50f 52f
3:18am  -  0 mph 1015.5mb 50f 52f
3:12am  -  1 mph 1015.5mb 50f 52f
3:06am  -  1 mph 1015.6mb 50f 51f
3:00am  -  0 mph 1015.6mb 50f 51f
2:54am  -  2 mph 1015.6mb 50f 51f
2:48am  -  1 mph 1015.6mb 50f 51f
2:42am  -  0 mph 1015.7mb 50f 52f
2:36am  -  2 mph 1015.7mb 50f 52f
2:30am 1 2 mph 1015.8mb 50f 52f
2:24am 1 1 mph 1015.8mb 50f 52f
2:18am  -  1 mph 1015.8mb 50f 52f
2:12am  -  1 mph 1015.8mb 50f 52f
2:06am  -  1 mph 1015.8mb 50f 52f
2:00am 1 2 mph 1015.7mb 50f 53f
1:54am 2 3 mph 1015.7mb 50f 53f
1:48am 2 3 mph 1015.7mb 50f 53f
1:42am 1 1 mph 1015.6mb 50f 53f
1:36am  -  1 mph 1015.7mb 50f 53f
1:30am  -  1 mph 1015.8mb 50f 53f
1:24am  -  2 mph 1015.9mb 50f 53f
1:18am 2 2 mph 1015.8mb 50f 53f
1:12am 2 3 mph 1015.7mb 50f 53f
1:06am 2 2 mph 1015.6mb 50f 54f
1:00am  -  5 mph 1015.5mb 50f 55f
12:54am 2 3 mph 1015.5mb 50f 55f
12:48am 2 5 mph 1015.4mb 50f 55f
12:42am 3 5 mph 1015.3mb 50f 55f
12:36am 2 6 mph 1015.3mb 50f 56f
12:30am 5 6 mph 1015.4mb 50f 58f
12:24am 5 6 mph 1015.5mb 50f 58f
12:18am 5 7 mph 1015.4mb 50f 58f
12:12am 6 8 mph 1015.5mb 50f 58f
12:06am 6 7 mph 1015.5mb 50f 58f
12:00am 6 8 mph 1015.5mb 50f 58f
Sat 09/16 11:54pm 6 7 mph 1015.5mb 50f 58f
11:48pm 5 6 mph 1015.4mb 50f -
11:42pm 5 6 mph 1015.4mb 50f -
11:36pm 5 6 mph 1015.5mb 50f -
11:30pm 5 7 mph 1015.7mb 50f 57f
11:24pm 5 7 mph 1015.6mb 50f 57f
11:18pm 6 7 mph 1015.7mb 50f 57f
11:12pm 6 8 mph 1015.7mb 50f 57f
11:06pm 5 8 mph 1015.7mb 50f 56f
11:00pm 6 10 mph 1015.6mb 50f 56f
10:54pm 8 10 mph 1015.7mb 50f 56f
10:48pm 7 8 mph 1015.8mb - -
10:42pm 7 8 mph 1015.8mb - -
10:36pm 7 9 mph 1015.7mb - -
10:30pm 6 8 mph 1015.7mb 50f 58f
10:24pm 6 7 mph 1015.6mb 50f 58f
10:18pm 5 7 mph 1015.5mb 50f 58f
10:12pm 5 8 mph 1015.4mb 50f 58f
10:06pm 6 8 mph 1015.3mb 50f 58f
10:00pm 6 8 mph 1015.3mb 50f 57f
9:54pm 7 10 mph 1015.2mb 50f 58f
9:48pm 6 9 mph 1015.2mb 50f 58f
9:42pm 6 8 mph 1015.3mb 50f 58f
9:36pm 5 8 mph 1015.3mb 50f 58f
9:30pm 6 8 mph 1015.3mb 50f 58f
9:24pm 6 10 mph 1015.4mb 50f 58f
9:18pm 7 10 mph 1015.3mb 50f 58f
9:12pm 6 10 mph 1015.3mb 50f 57f
9:06pm 7 13 mph 1015.4mb 50f 57f
9:00pm 8 11 mph 1015.6mb 50f 57f
8:54pm 7 10 mph 1015.4mb 50f 57f
8:48pm 8 11 mph 1015.4mb 50f 58f
8:42pm 7 10 mph 1015.4mb 50f 58f
8:36pm 6 10 mph 1015.3mb 50f 58f
8:30pm 7 11 mph 1015.3mb 50f 58f
8:24pm 7 10 mph 1015.3mb 50f 58f
8:18pm 6 13 mph 1015.4mb 50f 58f
8:12pm 8 13 mph 1015.3mb 50f 58f
8:06pm 8 11 mph 1015.3mb 50f 58f
8:00pm 10 14 mph 1015mb 50f 59f
7:54pm 8 11 mph 1015mb 50f 59f
7:48pm 8 15 mph 1014.9mb 50f 59f
7:42pm 9 13 mph 1014.8mb 50f 59f
7:36pm 9 14 mph 1014.7mb 50f 59f
7:30pm 10 15 mph 1014.7mb 50f 59f
7:24pm 7 16 mph 1014.8mb 50f 59f
7:18pm 8 15 mph 1014.8mb 50f 59f
7:12pm 10 15 mph 1014.9mb 50f 60f
7:06pm 9 18 mph 1014.9mb 50f 60f
7:00pm 14 21 mph 1014.8mb 50f 60f
6:54pm 14 17 mph 1015mb 50f 60f
6:48pm 10 16 mph 1015.1mb 50f 60f
6:42pm 9 14 mph 1015.1mb 50f 61f
6:36pm 10 14 mph 1015mb 50f 61f
6:30pm 10 18 mph 1014.9mb 50f 61f
6:24pm 10 17 mph 1014.9mb 50f 62f
6:18pm 9 17 mph 1015mb 50f 62f
6:12pm 10 21 mph 1015mb 50f 62f
6:06pm 11 22 mph 1015mb 50f 62f
6:00pm 11 18 mph 1014.9mb 50f 62f
5:54pm 13 23 mph 1015mb 50f 62f
5:48pm 9 18 mph 1015mb 50f 63f
5:42pm 13 18 mph 1015.1mb 50f 63f
5:36pm 11 18 mph 1015mb 50f 63f
5:30pm 14 23 mph 1015mb 50f 63f
5:24pm 9 22 mph 1015mb 50f 63f
5:18pm 9 18 mph 1015mb 50f 62f
5:12pm 13 18 mph 1015mb 50f 62f
5:06pm 11 18 mph 1014.9mb 50f 61f
5:00pm 13 17 mph 1014.8mb 50f 61f
4:54pm 13 21 mph 1014.7mb 51f 60f
4:48pm 14 21 mph 1014.7mb 51f 59f
4:42pm 15 21 mph 1014.7mb 50f 59f
4:36pm 17 22 mph 1014.7mb 50f 59f
4:30pm 11 22 mph 1014.7mb 50f 64f
4:24pm 10 24 mph 1014.5mb 50f 65f
4:18pm 14 26 mph 1014.4mb 51f 65f
4:12pm 16 21 mph 1014.6mb 51f 64f
4:06pm 14 22 mph 1014.5mb 51f 65f
4:00pm 14 20 mph 1014.5mb 50f 64f
3:54pm 13 20 mph 1014.5mb 50f 65f
3:48pm 15 22 mph 1014.5mb 50f 64f
3:42pm 14 21 mph 1014.5mb 50f 64f
3:36pm 14 22 mph 1014.4mb 51f 63f
3:30pm 14 23 mph 1014.4mb 51f 62f
3:24pm 16 22 mph 1014.3mb 51f 62f
3:18pm 13 22 mph 1014.3mb 51f 63f
3:12pm 13 21 mph 1014.4mb 51f 63f
3:06pm 14 21 mph 1014.4mb 51f 63f
3:00pm 14 20 mph 1014.3mb 51f 63f
2:54pm 10 16 mph 1014.3mb 51f 65f
2:48pm 11 18 mph 1014.2mb 51f 65f
2:42pm 14 22 mph 1014.3mb 51f 65f
2:36pm 10 18 mph 1014.3mb 51f 65f
2:30pm 11 17 mph 1014.3mb 51f 64f
2:24pm 13 21 mph 1014.3mb 51f 63f
2:18pm 13 18 mph 1014.4mb 51f 63f
2:12pm 13 20 mph 1014.5mb 51f 65f
2:06pm 10 18 mph 1014.4mb 51f 66f